sensor_id;sensor_type;location;lat;lon;timestamp;temperature;humidity
27439;DHT22;14887;51.252;7.470;2023-09-19T00:00:57;13.60;1.00
27439;DHT22;14887;51.252;7.470;2023-09-19T00:03:23;13.60;1.00
27439;DHT22;14887;51.252;7.470;2023-09-19T00:05:50;13.50;1.00
27439;DHT22;14887;51.252;7.470;2023-09-19T00:08:16;13.40;1.00
27439;DHT22;14887;51.252;7.470;2023-09-19T00:10:43;13.40;1.00
27439;DHT22;14887;51.252;7.470;2023-09-19T00:13:09;13.40;1.00
27439;DHT22;14887;51.252;7.470;2023-09-19T00:15:44;13.20;1.00
27439;DHT22;14887;51.252;7.470;2023-09-19T00:18:19;13.20;1.00
27439;DHT22;14887;51.252;7.470;2023-09-19T00:20:47;13.20;1.00
27439;DHT22;14887;51.252;7.470;2023-09-19T00:23:17;13.20;1.00
27439;DHT22;14887;51.252;7.470;2023-09-19T00:25:42;13.10;1.00
27439;DHT22;14887;51.252;7.470;2023-09-19T00:28:08;13.10;1.00
27439;DHT22;14887;51.252;7.470;2023-09-19T00:30:34;13.10;1.00
27439;DHT22;14887;51.252;7.470;2023-09-19T00:33:00;13.00;1.00
27439;DHT22;14887;51.252;7.470;2023-09-19T00:35:27;13.00;1.00
27439;DHT22;14887;51.252;7.470;2023-09-19T00:37:56;13.00;1.00
27439;DHT22;14887;51.252;7.470;2023-09-19T00:40:21;13.00;1.00
27439;DHT22;14887;51.252;7.470;2023-09-19T00:42:48;13.00;1.00
27439;DHT22;14887;51.252;7.470;2023-09-19T00:45:16;13.00;1.00
27439;DHT22;14887;51.252;7.470;2023-09-19T00:47:50;13.10;1.00
27439;DHT22;14887;51.252;7.470;2023-09-19T00:50:21;13.10;1.00
27439;DHT22;14887;51.252;7.470;2023-09-19T00:52:49;13.10;1.00
27439;DHT22;14887;51.252;7.470;2023-09-19T00:55:16;13.10;1.00
27439;DHT22;14887;51.252;7.470;2023-09-19T00:57:45;13.10;1.00
27439;DHT22;14887;51.252;7.470;2023-09-19T01:00:13;13.10;1.00
27439;DHT22;14887;51.252;7.470;2023-09-19T01:02:42;13.10;1.00
27439;DHT22;14887;51.252;7.470;2023-09-19T01:05:12;13.10;1.00
27439;DHT22;14887;51.252;7.470;2023-09-19T01:07:38;13.10;1.00
27439;DHT22;14887;51.252;7.470;2023-09-19T01:10:08;13.10;1.00
27439;DHT22;14887;51.252;7.470;2023-09-19T01:23:31;12.80;1.00
27439;DHT22;14887;51.252;7.470;2023-09-19T01:26:07;12.80;1.00
27439;DHT22;14887;51.252;7.470;2023-09-19T01:29:05;12.80;1.00
27439;DHT22;14887;51.252;7.470;2023-09-19T01:31:39;12.80;1.00
27439;DHT22;14887;51.252;7.470;2023-09-19T01:34:05;12.70;1.00
27439;DHT22;14887;51.252;7.470;2023-09-19T01:36:34;12.70;1.00
27439;DHT22;14887;51.252;7.470;2023-09-19T01:39:07;12.70;1.00
27439;DHT22;14887;51.252;7.470;2023-09-19T01:41:47;12.80;1.00
27439;DHT22;14887;51.252;7.470;2023-09-19T01:44:44;12.70;1.00
27439;DHT22;14887;51.252;7.470;2023-09-19T01:47:22;12.80;1.00
27439;DHT22;14887;51.252;7.470;2023-09-19T01:50:17;12.80;1.00
27439;DHT22;14887;51.252;7.470;2023-09-19T01:52:49;12.70;1.00
27439;DHT22;14887;51.252;7.470;2023-09-19T01:55:19;12.70;1.00
27439;DHT22;14887;51.252;7.470;2023-09-19T01:58:04;12.70;1.00
27439;DHT22;14887;51.252;7.470;2023-09-19T02:00:34;12.70;1.00
27439;DHT22;14887;51.252;7.470;2023-09-19T02:03:02;12.70;1.00
27439;DHT22;14887;51.252;7.470;2023-09-19T02:05:28;12.70;1.00
27439;DHT22;14887;51.252;7.470;2023-09-19T02:07:54;12.70;1.00
27439;DHT22;14887;51.252;7.470;2023-09-19T02:10:21;12.70;1.00
27439;DHT22;14887;51.252;7.470;2023-09-19T02:12:47;12.60;1.00
27439;DHT22;14887;51.252;7.470;2023-09-19T02:15:13;12.60;1.00
27439;DHT22;14887;51.252;7.470;2023-09-19T02:17:44;12.60;1.00
27439;DHT22;14887;51.252;7.470;2023-09-19T02:20:11;12.50;1.00
27439;DHT22;14887;51.252;7.470;2023-09-19T02:22:40;12.50;1.00
27439;DHT22;14887;51.252;7.470;2023-09-19T02:25:07;12.50;1.00
27439;DHT22;14887;51.252;7.470;2023-09-19T02:27:33;12.50;1.00
27439;DHT22;14887;51.252;7.470;2023-09-19T02:29:59;12.60;1.00
27439;DHT22;14887;51.252;7.470;2023-09-19T02:32:27;12.50;1.00
27439;DHT22;14887;51.252;7.470;2023-09-19T02:34:55;12.50;1.00
27439;DHT22;14887;51.252;7.470;2023-09-19T02:37:21;12.50;1.00
27439;DHT22;14887;51.252;7.470;2023-09-19T02:39:47;12.50;1.00
27439;DHT22;14887;51.252;7.470;2023-09-19T02:42:12;12.50;1.00
27439;DHT22;14887;51.252;7.470;2023-09-19T02:44:38;12.40;1.00
27439;DHT22;14887;51.252;7.470;2023-09-19T02:47:05;12.40;1.00
27439;DHT22;14887;51.252;7.470;2023-09-19T02:49:30;12.40;1.00
27439;DHT22;14887;51.252;7.470;2023-09-19T02:51:56;12.40;1.00
27439;DHT22;14887;51.252;7.470;2023-09-19T02:54:24;12.40;1.00
27439;DHT22;14887;51.252;7.470;2023-09-19T02:56:49;12.30;1.00
27439;DHT22;14887;51.252;7.470;2023-09-19T02:59:15;12.30;1.00
27439;DHT22;14887;51.252;7.470;2023-09-19T03:01:43;12.30;1.00
27439;DHT22;14887;51.252;7.470;2023-09-19T03:04:09;12.30;1.00
27439;DHT22;14887;51.252;7.470;2023-09-19T03:06:37;12.30;1.00
27439;DHT22;14887;51.252;7.470;2023-09-19T03:09:03;12.20;1.00
27439;DHT22;14887;51.252;7.470;2023-09-19T03:11:31;12.20;1.00
27439;DHT22;14887;51.252;7.470;2023-09-19T03:13:57;12.20;1.00
27439;DHT22;14887;51.252;7.470;2023-09-19T03:16:23;12.10;1.00
27439;DHT22;14887;51.252;7.470;2023-09-19T03:18:50;12.10;1.00
27439;DHT22;14887;51.252;7.470;2023-09-19T03:21:16;12.10;1.00
27439;DHT22;14887;51.252;7.470;2023-09-19T03:23:43;12.10;1.00
27439;DHT22;14887;51.252;7.470;2023-09-19T03:26:13;12.10;1.00
27439;DHT22;14887;51.252;7.470;2023-09-19T03:28:42;12.10;1.00
27439;DHT22;14887;51.252;7.470;2023-09-19T03:31:09;12.10;1.00
27439;DHT22;14887;51.252;7.470;2023-09-19T03:33:35;12.10;1.00
27439;DHT22;14887;51.252;7.470;2023-09-19T03:36:02;12.10;1.00
27439;DHT22;14887;51.252;7.470;2023-09-19T03:38:31;12.20;1.00
27439;DHT22;14887;51.252;7.470;2023-09-19T03:40:57;12.10;1.00
27439;DHT22;14887;51.252;7.470;2023-09-19T03:43:23;12.10;1.00
27439;DHT22;14887;51.252;7.470;2023-09-19T03:45:48;12.10;1.00
27439;DHT22;14887;51.252;7.470;2023-09-19T03:48:16;12.00;1.00
27439;DHT22;14887;51.252;7.470;2023-09-19T03:50:42;12.00;1.00
27439;DHT22;14887;51.252;7.470;2023-09-19T03:53:09;12.00;1.00
27439;DHT22;14887;51.252;7.470;2023-09-19T03:55:35;12.00;1.00
27439;DHT22;14887;51.252;7.470;2023-09-19T03:58:04;11.90;1.00
27439;DHT22;14887;51.252;7.470;2023-09-19T04:00:30;11.80;1.00
27439;DHT22;14887;51.252;7.470;2023-09-19T04:02:56;11.80;1.00
27439;DHT22;14887;51.252;7.470;2023-09-19T04:05:25;11.80;1.00
27439;DHT22;14887;51.252;7.470;2023-09-19T04:07:50;11.70;1.00
27439;DHT22;14887;51.252;7.470;2023-09-19T04:10:16;11.70;1.00
27439;DHT22;14887;51.252;7.470;2023-09-19T04:12:55;11.70;1.00
27439;DHT22;14887;51.252;7.470;2023-09-19T04:15:21;11.70;1.00
27439;DHT22;14887;51.252;7.470;2023-09-19T04:17:50;11.60;1.00
27439;DHT22;14887;51.252;7.470;2023-09-19T04:20:17;11.60;1.00
27439;DHT22;14887;51.252;7.470;2023-09-19T04:22:45;11.60;1.00
27439;DHT22;14887;51.252;7.470;2023-09-19T04:25:11;11.60;1.00
27439;DHT22;14887;51.252;7.470;2023-09-19T04:27:37;11.60;1.00
27439;DHT22;14887;51.252;7.470;2023-09-19T04:30:04;11.60;1.00
27439;DHT22;14887;51.252;7.470;2023-09-19T04:32:35;11.50;1.00
27439;DHT22;14887;51.252;7.470;2023-09-19T04:35:04;11.60;1.00
27439;DHT22;14887;51.252;7.470;2023-09-19T04:37:31;11.60;1.00
27439;DHT22;14887;51.252;7.470;2023-09-19T04:39:57;11.50;1.00
27439;DHT22;14887;51.252;7.470;2023-09-19T04:42:22;11.50;1.00
27439;DHT22;14887;51.252;7.470;2023-09-19T04:44:50;11.50;1.00
27439;DHT22;14887;51.252;7.470;2023-09-19T04:47:19;11.50;1.00
27439;DHT22;14887;51.252;7.470;2023-09-19T04:49:46;11.50;1.00
27439;DHT22;14887;51.252;7.470;2023-09-19T04:52:12;11.40;1.00
27439;DHT22;14887;51.252;7.470;2023-09-19T04:54:41;11.40;1.00
27439;DHT22;14887;51.252;7.470;2023-09-19T04:57:07;11.40;1.00
27439;DHT22;14887;51.252;7.470;2023-09-19T04:59:32;11.50;1.00
27439;DHT22;14887;51.252;7.470;2023-09-19T05:01:58;11.40;1.00
27439;DHT22;14887;51.252;7.470;2023-09-19T05:04:24;11.40;1.00
27439;DHT22;14887;51.252;7.470;2023-09-19T05:06:49;11.40;1.00
27439;DHT22;14887;51.252;7.470;2023-09-19T05:09:16;11.40;1.00
27439;DHT22;14887;51.252;7.470;2023-09-19T05:11:45;11.40;1.00
27439;DHT22;14887;51.252;7.470;2023-09-19T05:14:10;11.40;1.00
27439;DHT22;14887;51.252;7.470;2023-09-19T05:16:37;11.40;1.00
27439;DHT22;14887;51.252;7.470;2023-09-19T05:19:02;11.40;1.00
27439;DHT22;14887;51.252;7.470;2023-09-19T05:21:28;11.40;1.00
27439;DHT22;14887;51.252;7.470;2023-09-19T05:23:54;11.50;1.00
27439;DHT22;14887;51.252;7.470;2023-09-19T05:26:20;11.50;1.00
27439;DHT22;14887;51.252;7.470;2023-09-19T05:28:46;11.50;1.00
27439;DHT22;14887;51.252;7.470;2023-09-19T05:31:13;11.50;1.00
27439;DHT22;14887;51.252;7.470;2023-09-19T05:33:41;11.40;1.00
27439;DHT22;14887;51.252;7.470;2023-09-19T05:36:06;11.40;1.00
27439;DHT22;14887;51.252;7.470;2023-09-19T05:38:35;11.40;1.00
27439;DHT22;14887;51.252;7.470;2023-09-19T05:41:00;11.40;1.00
27439;DHT22;14887;51.252;7.470;2023-09-19T05:43:26;11.40;1.00
27439;DHT22;14887;51.252;7.470;2023-09-19T05:45:51;11.50;1.00
27439;DHT22;14887;51.252;7.470;2023-09-19T05:48:17;11.50;1.00
27439;DHT22;14887;51.252;7.470;2023-09-19T05:50:43;11.50;1.00
27439;DHT22;14887;51.252;7.470;2023-09-19T05:53:12;11.50;1.00
27439;DHT22;14887;51.252;7.470;2023-09-19T05:55:40;11.60;1.00
27439;DHT22;14887;51.252;7.470;2023-09-19T05:58:05;11.60;1.00
27439;DHT22;14887;51.252;7.470;2023-09-19T06:00:31;11.60;1.00
27439;DHT22;14887;51.252;7.470;2023-09-19T06:02:58;11.60;1.00
27439;DHT22;14887;51.252;7.470;2023-09-19T06:05:25;11.60;1.00
27439;DHT22;14887;51.252;7.470;2023-09-19T06:07:57;11.70;1.00
27439;DHT22;14887;51.252;7.470;2023-09-19T06:10:27;11.80;1.00
27439;DHT22;14887;51.252;7.470;2023-09-19T06:12:53;11.90;1.00
27439;DHT22;14887;51.252;7.470;2023-09-19T06:15:20;11.90;1.00
27439;DHT22;14887;51.252;7.470;2023-09-19T06:17:52;12.00;1.00
27439;DHT22;14887;51.252;7.470;2023-09-19T06:20:22;12.10;1.00
27439;DHT22;14887;51.252;7.470;2023-09-19T06:22:49;12.10;1.00
27439;DHT22;14887;51.252;7.470;2023-09-19T06:25:16;12.10;1.00
27439;DHT22;14887;51.252;7.470;2023-09-19T06:27:48;12.20;1.00
27439;DHT22;14887;51.252;7.470;2023-09-19T06:30:17;12.20;1.00
27439;DHT22;14887;51.252;7.470;2023-09-19T06:32:43;12.20;1.00
27439;DHT22;14887;51.252;7.470;2023-09-19T06:35:10;12.30;1.00
27439;DHT22;14887;51.252;7.470;2023-09-19T06:37:37;12.30;1.00
27439;DHT22;14887;51.252;7.470;2023-09-19T06:40:09;12.40;1.00
27439;DHT22;14887;51.252;7.470;2023-09-19T06:42:43;12.40;1.00
27439;DHT22;14887;51.252;7.470;2023-09-19T06:45:13;12.30;1.00
27439;DHT22;14887;51.252;7.470;2023-09-19T06:47:43;12.30;1.00
27439;DHT22;14887;51.252;7.470;2023-09-19T06:50:10;12.30;99.90
27439;DHT22;14887;51.252;7.470;2023-09-19T06:52:42;12.40;99.90
27439;DHT22;14887;51.252;7.470;2023-09-19T06:55:08;12.40;99.90
27439;DHT22;14887;51.252;7.470;2023-09-19T06:57:35;12.50;99.90
27439;DHT22;14887;51.252;7.470;2023-09-19T07:00:01;12.50;99.90
27439;DHT22;14887;51.252;7.470;2023-09-19T07:02:27;12.60;99.90
27439;DHT22;14887;51.252;7.470;2023-09-19T07:04:52;12.60;99.90
27439;DHT22;14887;51.252;7.470;2023-09-19T07:07:18;12.60;99.90
27439;DHT22;14887;51.252;7.470;2023-09-19T07:09:44;12.70;99.90
27439;DHT22;14887;51.252;7.470;2023-09-19T07:12:09;12.70;99.90
27439;DHT22;14887;51.252;7.470;2023-09-19T07:14:35;12.70;99.90
27439;DHT22;14887;51.252;7.470;2023-09-19T07:17:01;12.80;99.90
27439;DHT22;14887;51.252;7.470;2023-09-19T07:19:27;12.90;99.90
27439;DHT22;14887;51.252;7.470;2023-09-19T07:21:56;12.90;99.90
27439;DHT22;14887;51.252;7.470;2023-09-19T07:24:25;12.90;99.90
27439;DHT22;14887;51.252;7.470;2023-09-19T07:26:52;13.10;99.90
27439;DHT22;14887;51.252;7.470;2023-09-19T07:29:17;13.20;99.90
27439;DHT22;14887;51.252;7.470;2023-09-19T07:31:43;13.20;99.90
27439;DHT22;14887;51.252;7.470;2023-09-19T07:34:09;13.20;99.90
27439;DHT22;14887;51.252;7.470;2023-09-19T07:36:35;13.30;99.90
27439;DHT22;14887;51.252;7.470;2023-09-19T07:39:03;13.30;99.90
27439;DHT22;14887;51.252;7.470;2023-09-19T07:41:32;13.50;99.90
27439;DHT22;14887;51.252;7.470;2023-09-19T07:43:58;13.50;99.90
27439;DHT22;14887;51.252;7.470;2023-09-19T07:46:24;13.60;99.90
27439;DHT22;14887;51.252;7.470;2023-09-19T07:48:51;13.70;99.90
27439;DHT22;14887;51.252;7.470;2023-09-19T07:51:17;13.70;99.90
27439;DHT22;14887;51.252;7.470;2023-09-19T07:53:43;13.80;99.90
27439;DHT22;14887;51.252;7.470;2023-09-19T07:56:09;13.80;99.90
27439;DHT22;14887;51.252;7.470;2023-09-19T07:58:35;14.00;99.90
27439;DHT22;14887;51.252;7.470;2023-09-19T08:01:07;14.00;95.20
27439;DHT22;14887;51.252;7.470;2023-09-19T08:03:36;14.20;46.30
27439;DHT22;14887;51.252;7.470;2023-09-19T08:06:08;14.20;23.60
27439;DHT22;14887;51.252;7.470;2023-09-19T08:08:34;14.00;27.30
27439;DHT22;14887;51.252;7.470;2023-09-19T08:11:06;14.00;54.00
27439;DHT22;14887;51.252;7.470;2023-09-19T08:13:39;14.10;99.90
27439;DHT22;14887;51.252;7.470;2023-09-19T08:16:15;14.20;88.50
27439;DHT22;14887;51.252;7.470;2023-09-19T08:18:41;14.40;1.00
27439;DHT22;14887;51.252;7.470;2023-09-19T08:21:07;14.40;1.00
27439;DHT22;14887;51.252;7.470;2023-09-19T08:23:39;14.30;18.60
27439;DHT22;14887;51.252;7.470;2023-09-19T08:26:05;14.20;21.90
27439;DHT22;14887;51.252;7.470;2023-09-19T08:28:36;14.00;76.80
27439;DHT22;14887;51.252;7.470;2023-09-19T08:31:07;14.00;87.00
27439;DHT22;14887;51.252;7.470;2023-09-19T08:33:34;14.00;91.90
27439;DHT22;14887;51.252;7.470;2023-09-19T08:36:04;14.00;99.90
27439;DHT22;14887;51.252;7.470;2023-09-19T08:38:31;14.00;99.90
27439;DHT22;14887;51.252;7.470;2023-09-19T08:41:01;14.00;99.90
27439;DHT22;14887;51.252;7.470;2023-09-19T08:43:30;14.30;96.80
27439;DHT22;14887;51.252;7.470;2023-09-19T08:46:10;14.40;1.00
27439;DHT22;14887;51.252;7.470;2023-09-19T08:48:45;14.50;1.00
27439;DHT22;14887;51.252;7.470;2023-09-19T08:51:27;14.40;1.00
27439;DHT22;14887;51.252;7.470;2023-09-19T08:56:29;14.20;1.00
27439;DHT22;14887;51.252;7.470;2023-09-19T08:58:59;14.20;1.00
27439;DHT22;14887;51.252;7.470;2023-09-19T09:01:28;14.20;1.00
27439;DHT22;14887;51.252;7.470;2023-09-19T09:03:54;14.40;6.80
27439;DHT22;14887;51.252;7.470;2023-09-19T09:06:21;14.50;1.00
27439;DHT22;14887;51.252;7.470;2023-09-19T09:08:47;14.40;1.00
27439;DHT22;14887;51.252;7.470;2023-09-19T09:11:13;14.50;1.00
27439;DHT22;14887;51.252;7.470;2023-09-19T09:13:40;14.60;1.00
27439;DHT22;14887;51.252;7.470;2023-09-19T09:16:07;14.80;1.00
27439;DHT22;14887;51.252;7.470;2023-09-19T09:18:33;15.00;1.00
27439;DHT22;14887;51.252;7.470;2023-09-19T09:20:58;15.40;1.00
27439;DHT22;14887;51.252;7.470;2023-09-19T09:23:26;15.60;99.90
27439;DHT22;14887;51.252;7.470;2023-09-19T09:25:55;15.40;99.90
27439;DHT22;14887;51.252;7.470;2023-09-19T09:28:27;15.20;1.00
27439;DHT22;14887;51.252;7.470;2023-09-19T09:30:54;15.30;1.00
27439;DHT22;14887;51.252;7.470;2023-09-19T09:33:20;15.80;99.90
27439;DHT22;14887;51.252;7.470;2023-09-19T09:38:22;16.70;1.00
27439;DHT22;14887;51.252;7.470;2023-09-19T09:40:54;17.20;37.30
27439;DHT22;14887;51.252;7.470;2023-09-19T09:43:36;17.10;99.90
27439;DHT22;14887;51.252;7.470;2023-09-19T09:46:15;16.90;99.90
27439;DHT22;14887;51.252;7.470;2023-09-19T09:49:03;17.00;99.90
27439;DHT22;14887;51.252;7.470;2023-09-19T09:52:02;17.20;99.90
27439;DHT22;14887;51.252;7.470;2023-09-19T09:54:33;17.10;71.10
27439;DHT22;14887;51.252;7.470;2023-09-19T09:57:04;17.20;99.90
27439;DHT22;14887;51.252;7.470;2023-09-19T09:59:59;17.20;58.00
27439;DHT22;14887;51.252;7.470;2023-09-19T10:02:41;16.90;99.90
27439;DHT22;14887;51.252;7.470;2023-09-19T10:05:18;16.60;1.00
27439;DHT22;14887;51.252;7.470;2023-09-19T10:07:51;16.90;1.00
27439;DHT22;14887;51.252;7.470;2023-09-19T10:10:35;16.90;1.00
27439;DHT22;14887;51.252;7.470;2023-09-19T10:13:20;17.10;1.00
27439;DHT22;14887;51.252;7.470;2023-09-19T10:15:50;17.20;1.00
27439;DHT22;14887;51.252;7.470;2023-09-19T10:18:24;17.20;1.00
27439;DHT22;14887;51.252;7.470;2023-09-19T10:20:51;17.10;1.00
27439;DHT22;14887;51.252;7.470;2023-09-19T10:23:18;17.10;1.00
27439;DHT22;14887;51.252;7.470;2023-09-19T10:25:48;16.90;1.00
27439;DHT22;14887;51.252;7.470;2023-09-19T10:28:16;16.60;1.00
27439;DHT22;14887;51.252;7.470;2023-09-19T10:30:46;16.80;1.00
27439;DHT22;14887;51.252;7.470;2023-09-19T10:33:17;16.70;1.00
27439;DHT22;14887;51.252;7.470;2023-09-19T10:35:48;16.30;1.00
27439;DHT22;14887;51.252;7.470;2023-09-19T10:38:17;16.10;1.00
27439;DHT22;14887;51.252;7.470;2023-09-19T10:40:51;15.90;1.00
27439;DHT22;14887;51.252;7.470;2023-09-19T10:43:19;16.20;1.00
27439;DHT22;14887;51.252;7.470;2023-09-19T10:45:45;16.30;1.00
27439;DHT22;14887;51.252;7.470;2023-09-19T10:48:15;16.30;1.00
27439;DHT22;14887;51.252;7.470;2023-09-19T10:50:51;16.50;1.00
27439;DHT22;14887;51.252;7.470;2023-09-19T10:53:18;16.50;1.00
27439;DHT22;14887;51.252;7.470;2023-09-19T10:55:51;16.60;1.00
27439;DHT22;14887;51.252;7.470;2023-09-19T10:58:31;16.50;1.00
27439;DHT22;14887;51.252;7.470;2023-09-19T11:01:00;16.50;1.00
27439;DHT22;14887;51.252;7.470;2023-09-19T11:03:33;16.80;1.00
27439;DHT22;14887;51.252;7.470;2023-09-19T11:06:04;17.50;1.00
27439;DHT22;14887;51.252;7.470;2023-09-19T11:08:33;17.70;99.90
27439;DHT22;14887;51.252;7.470;2023-09-19T11:17:35;17.90;99.90
27439;DHT22;14887;51.252;7.470;2023-09-19T11:30:44;18.00;1.00
27439;DHT22;14887;51.252;7.470;2023-09-19T11:36:14;18.90;99.90
27439;DHT22;14887;51.252;7.470;2023-09-19T11:43:54;18.60;99.90
27439;DHT22;14887;51.252;7.470;2023-09-19T11:46:51;18.80;99.90
27439;DHT22;14887;51.252;7.470;2023-09-19T11:49:18;18.80;99.90
27439;DHT22;14887;51.252;7.470;2023-09-19T11:51:50;19.00;99.90
27439;DHT22;14887;51.252;7.470;2023-09-19T11:54:20;19.20;99.90
27439;DHT22;14887;51.252;7.470;2023-09-19T11:56:51;19.40;99.90
27439;DHT22;14887;51.252;7.470;2023-09-19T11:59:20;19.40;99.90
27439;DHT22;14887;51.252;7.470;2023-09-19T12:01:53;19.20;99.90
27439;DHT22;14887;51.252;7.470;2023-09-19T12:04:53;19.40;99.90
27439;DHT22;14887;51.252;7.470;2023-09-19T12:07:19;19.50;99.90
27439;DHT22;14887;51.252;7.470;2023-09-19T12:09:47;19.30;99.90
27439;DHT22;14887;51.252;7.470;2023-09-19T12:12:27;18.80;99.90
27439;DHT22;14887;51.252;7.470;2023-09-19T12:14:54;19.10;99.90
27439;DHT22;14887;51.252;7.470;2023-09-19T12:17:20;19.00;99.90
27439;DHT22;14887;51.252;7.470;2023-09-19T12:19:52;18.80;99.90
27439;DHT22;14887;51.252;7.470;2023-09-19T12:22:18;18.50;99.90
27439;DHT22;14887;51.252;7.470;2023-09-19T12:24:45;18.60;99.90
27439;DHT22;14887;51.252;7.470;2023-09-19T12:27:12;18.60;99.90
27439;DHT22;14887;51.252;7.470;2023-09-19T12:29:47;18.30;99.90
27439;DHT22;14887;51.252;7.470;2023-09-19T12:32:14;17.90;99.90
27439;DHT22;14887;51.252;7.470;2023-09-19T12:34:42;17.60;1.00
27439;DHT22;14887;51.252;7.470;2023-09-19T12:37:15;17.60;1.00
27439;DHT22;14887;51.252;7.470;2023-09-19T12:39:46;18.00;99.90
27439;DHT22;14887;51.252;7.470;2023-09-19T12:42:15;18.00;99.90
27439;DHT22;14887;51.252;7.470;2023-09-19T12:44:46;17.90;99.90
27439;DHT22;14887;51.252;7.470;2023-09-19T12:47:16;17.90;99.90
27439;DHT22;14887;51.252;7.470;2023-09-19T12:50:05;18.60;99.90
27439;DHT22;14887;51.252;7.470;2023-09-19T12:52:40;19.70;99.90
27439;DHT22;14887;51.252;7.470;2023-09-19T12:55:06;20.90;99.90
27439;DHT22;14887;51.252;7.470;2023-09-19T12:57:35;21.80;99.90
27439;DHT22;14887;51.252;7.470;2023-09-19T13:00:05;22.40;99.90
27439;DHT22;14887;51.252;7.470;2023-09-19T13:02:37;22.90;99.90
27439;DHT22;14887;51.252;7.470;2023-09-19T13:05:03;22.50;99.90
27439;DHT22;14887;51.252;7.470;2023-09-19T13:07:45;22.60;99.90
27439;DHT22;14887;51.252;7.470;2023-09-19T13:10:14;22.70;99.90
27439;DHT22;14887;51.252;7.470;2023-09-19T13:12:42;23.00;99.90
27439;DHT22;14887;51.252;7.470;2023-09-19T13:15:14;22.90;99.90
27439;DHT22;14887;51.252;7.470;2023-09-19T13:17:49;23.20;99.90
27439;DHT22;14887;51.252;7.470;2023-09-19T13:20:24;22.00;99.90
27439;DHT22;14887;51.252;7.470;2023-09-19T13:22:54;21.70;99.90
27439;DHT22;14887;51.252;7.470;2023-09-19T13:25:32;21.40;99.90
27439;DHT22;14887;51.252;7.470;2023-09-19T13:27:58;22.00;99.90
27439;DHT22;14887;51.252;7.470;2023-09-19T13:30:28;22.60;99.90
27439;DHT22;14887;51.252;7.470;2023-09-19T13:33:09;22.60;99.90
27439;DHT22;14887;51.252;7.470;2023-09-19T13:35:36;22.50;99.90
27439;DHT22;14887;51.252;7.470;2023-09-19T13:38:07;22.90;99.90
27439;DHT22;14887;51.252;7.470;2023-09-19T13:40:38;22.70;99.90
27439;DHT22;14887;51.252;7.470;2023-09-19T13:43:05;22.80;99.90
27439;DHT22;14887;51.252;7.470;2023-09-19T13:45:32;22.50;99.90
27439;DHT22;14887;51.252;7.470;2023-09-19T13:47:57;23.10;99.90
27439;DHT22;14887;51.252;7.470;2023-09-19T13:50:24;23.40;99.90
27439;DHT22;14887;51.252;7.470;2023-09-19T13:52:51;23.30;99.90
27439;DHT22;14887;51.252;7.470;2023-09-19T13:55:17;23.20;99.90
27439;DHT22;14887;51.252;7.470;2023-09-19T13:57:46;22.20;99.90
27439;DHT22;14887;51.252;7.470;2023-09-19T14:00:12;21.50;99.90
27439;DHT22;14887;51.252;7.470;2023-09-19T14:02:41;21.40;99.90
27439;DHT22;14887;51.252;7.470;2023-09-19T14:05:09;21.80;99.90
27439;DHT22;14887;51.252;7.470;2023-09-19T14:07:37;22.00;99.90
27439;DHT22;14887;51.252;7.470;2023-09-19T14:10:03;21.80;99.90
27439;DHT22;14887;51.252;7.470;2023-09-19T14:12:33;22.50;99.90
27439;DHT22;14887;51.252;7.470;2023-09-19T14:14:59;22.20;99.90
27439;DHT22;14887;51.252;7.470;2023-09-19T14:17:25;22.40;99.90
27439;DHT22;14887;51.252;7.470;2023-09-19T14:19:52;22.00;99.90
27439;DHT22;14887;51.252;7.470;2023-09-19T14:22:17;21.70;99.90
27439;DHT22;14887;51.252;7.470;2023-09-19T14:24:43;21.90;99.90
27439;DHT22;14887;51.252;7.470;2023-09-19T14:27:09;21.60;99.90
27439;DHT22;14887;51.252;7.470;2023-09-19T14:29:35;20.90;99.90
27439;DHT22;14887;51.252;7.470;2023-09-19T14:32:00;20.30;99.90
27439;DHT22;14887;51.252;7.470;2023-09-19T14:34:26;19.60;99.90
27439;DHT22;14887;51.252;7.470;2023-09-19T14:36:51;19.10;99.90
27439;DHT22;14887;51.252;7.470;2023-09-19T14:39:17;18.70;99.90
27439;DHT22;14887;51.252;7.470;2023-09-19T14:41:45;18.30;99.90
27439;DHT22;14887;51.252;7.470;2023-09-19T14:44:10;18.20;99.90
27439;DHT22;14887;51.252;7.470;2023-09-19T14:46:36;18.00;99.90
27439;DHT22;14887;51.252;7.470;2023-09-19T14:49:02;18.00;99.90
27439;DHT22;14887;51.252;7.470;2023-09-19T14:51:30;17.90;99.90
27439;DHT22;14887;51.252;7.470;2023-09-19T14:53:56;17.80;99.90
27439;DHT22;14887;51.252;7.470;2023-09-19T14:56:23;17.80;99.90
27439;DHT22;14887;51.252;7.470;2023-09-19T14:58:50;17.80;99.90
27439;DHT22;14887;51.252;7.470;2023-09-19T15:01:16;17.70;99.90
27439;DHT22;14887;51.252;7.470;2023-09-19T15:03:42;17.60;99.90
27439;DHT22;14887;51.252;7.470;2023-09-19T15:06:09;17.50;99.90
27439;DHT22;14887;51.252;7.470;2023-09-19T15:08:36;17.50;99.90
27439;DHT22;14887;51.252;7.470;2023-09-19T15:11:07;17.50;99.90
27439;DHT22;14887;51.252;7.470;2023-09-19T15:13:34;17.50;99.90
27439;DHT22;14887;51.252;7.470;2023-09-19T15:16:03;17.50;99.90
27439;DHT22;14887;51.252;7.470;2023-09-19T15:18:30;17.50;99.90
27439;DHT22;14887;51.252;7.470;2023-09-19T15:21:00;17.60;99.90
27439;DHT22;14887;51.252;7.470;2023-09-19T15:23:25;17.80;99.90
27439;DHT22;14887;51.252;7.470;2023-09-19T15:25:51;18.00;99.90
27439;DHT22;14887;51.252;7.470;2023-09-19T15:28:18;17.90;99.90
27439;DHT22;14887;51.252;7.470;2023-09-19T15:30:44;18.00;99.90
27439;DHT22;14887;51.252;7.470;2023-09-19T15:33:09;18.00;99.90
27439;DHT22;14887;51.252;7.470;2023-09-19T15:35:35;17.80;99.90
27439;DHT22;14887;51.252;7.470;2023-09-19T15:38:03;17.60;99.90
27439;DHT22;14887;51.252;7.470;2023-09-19T15:40:28;17.60;99.90
27439;DHT22;14887;51.252;7.470;2023-09-19T15:42:54;17.60;99.90
27439;DHT22;14887;51.252;7.470;2023-09-19T15:45:22;17.50;99.90
27439;DHT22;14887;51.252;7.470;2023-09-19T15:47:48;17.50;99.90
27439;DHT22;14887;51.252;7.470;2023-09-19T15:50:14;17.30;99.90
27439;DHT22;14887;51.252;7.470;2023-09-19T15:52:40;17.50;99.90
27439;DHT22;14887;51.252;7.470;2023-09-19T15:55:06;17.50;99.90
27439;DHT22;14887;51.252;7.470;2023-09-19T15:57:33;17.40;99.90
27439;DHT22;14887;51.252;7.470;2023-09-19T15:59:59;17.20;1.00
27439;DHT22;14887;51.252;7.470;2023-09-19T16:02:25;17.20;1.00
27439;DHT22;14887;51.252;7.470;2023-09-19T16:04:54;17.10;1.00
27439;DHT22;14887;51.252;7.470;2023-09-19T16:07:19;17.00;1.00
27439;DHT22;14887;51.252;7.470;2023-09-19T16:09:45;17.00;1.00
27439;DHT22;14887;51.252;7.470;2023-09-19T16:12:10;17.00;1.00
27439;DHT22;14887;51.252;7.470;2023-09-19T16:14:36;17.00;1.00
27439;DHT22;14887;51.252;7.470;2023-09-19T16:17:03;16.90;1.00
27439;DHT22;14887;51.252;7.470;2023-09-19T16:19:28;16.90;1.00
27439;DHT22;14887;51.252;7.470;2023-09-19T16:21:54;16.80;1.00
27439;DHT22;14887;51.252;7.470;2023-09-19T16:24:21;16.80;1.00
27439;DHT22;14887;51.252;7.470;2023-09-19T16:26:47;16.80;1.00
27439;DHT22;14887;51.252;7.470;2023-09-19T16:29:14;16.80;1.00
27439;DHT22;14887;51.252;7.470;2023-09-19T16:31:41;16.70;1.00